sensor_id;sensor_type;location;lat;lon;timestamp;P1;durP1;ratioP1;P2;durP2;ratioP2
40256;SDS011;25977;45.462;9.210;2023-10-31T00:01:31;13.13;;;9.88;;
40256;SDS011;25977;45.462;9.210;2023-10-31T00:03:57;15.40;;;10.35;;
40256;SDS011;25977;45.462;9.210;2023-10-31T00:06:23;15.57;;;10.18;;
40256;SDS011;25977;45.462;9.210;2023-10-31T00:08:48;15.95;;;11.13;;
40256;SDS011;25977;45.462;9.210;2023-10-31T00:11:14;11.80;;;10.00;;
40256;SDS011;25977;45.462;9.210;2023-10-31T00:13:40;12.15;;;9.90;;
40256;SDS011;25977;45.462;9.210;2023-10-31T00:16:05;20.02;;;10.27;;
40256;SDS011;25977;45.462;9.210;2023-10-31T00:18:31;13.90;;;10.77;;
40256;SDS011;25977;45.462;9.210;2023-10-31T00:20:57;16.83;;;11.05;;
40256;SDS011;25977;45.462;9.210;2023-10-31T00:23:23;17.15;;;11.27;;
40256;SDS011;25977;45.462;9.210;2023-10-31T00:25:48;17.50;;;11.18;;
40256;SDS011;25977;45.462;9.210;2023-10-31T00:28:14;17.83;;;12.05;;
40256;SDS011;25977;45.462;9.210;2023-10-31T00:30:39;12.98;;;10.98;;
40256;SDS011;25977;45.462;9.210;2023-10-31T00:33:05;15.93;;;10.60;;
40256;SDS011;25977;45.462;9.210;2023-10-31T00:35:31;15.07;;;9.75;;
40256;SDS011;25977;45.462;9.210;2023-10-31T00:37:57;10.45;;;8.82;;
40256;SDS011;25977;45.462;9.210;2023-10-31T00:40:22;11.40;;;9.43;;
40256;SDS011;25977;45.462;9.210;2023-10-31T00:42:48;12.82;;;9.93;;
40256;SDS011;25977;45.462;9.210;2023-10-31T00:45:13;16.05;;;10.73;;
40256;SDS011;25977;45.462;9.210;2023-10-31T00:47:40;12.68;;;9.20;;
40256;SDS011;25977;45.462;9.210;2023-10-31T00:50:06;15.65;;;9.95;;
40256;SDS011;25977;45.462;9.210;2023-10-31T00:52:32;13.27;;;9.50;;
40256;SDS011;25977;45.462;9.210;2023-10-31T00:54:58;11.18;;;8.90;;
40256;SDS011;25977;45.462;9.210;2023-10-31T00:57:24;13.32;;;9.82;;
40256;SDS011;25977;45.462;9.210;2023-10-31T00:59:50;14.95;;;9.95;;
40256;SDS011;25977;45.462;9.210;2023-10-31T01:02:15;11.23;;;8.60;;
40256;SDS011;25977;45.462;9.210;2023-10-31T01:04:41;12.95;;;9.70;;
40256;SDS011;25977;45.462;9.210;2023-10-31T01:07:13;14.32;;;10.48;;
40256;SDS011;25977;45.462;9.210;2023-10-31T01:09:42;19.67;;;10.75;;
40256;SDS011;25977;45.462;9.210;2023-10-31T01:12:09;14.75;;;11.23;;
40256;SDS011;25977;45.462;9.210;2023-10-31T01:14:36;18.48;;;11.57;;
40256;SDS011;25977;45.462;9.210;2023-10-31T01:17:01;16.60;;;11.68;;
40256;SDS011;25977;45.462;9.210;2023-10-31T01:19:27;18.90;;;12.07;;
40256;SDS011;25977;45.462;9.210;2023-10-31T01:21:53;16.77;;;12.30;;
40256;SDS011;25977;45.462;9.210;2023-10-31T01:24:19;17.58;;;11.18;;
40256;SDS011;25977;45.462;9.210;2023-10-31T01:26:45;20.10;;;11.98;;
40256;SDS011;25977;45.462;9.210;2023-10-31T01:29:11;18.00;;;11.40;;
40256;SDS011;25977;45.462;9.210;2023-10-31T01:31:36;18.20;;;12.30;;
40256;SDS011;25977;45.462;9.210;2023-10-31T01:34:02;15.77;;;11.07;;
40256;SDS011;25977;45.462;9.210;2023-10-31T01:36:28;24.85;;;11.57;;
40256;SDS011;25977;45.462;9.210;2023-10-31T01:38:54;21.00;;;13.35;;
40256;SDS011;25977;45.462;9.210;2023-10-31T01:41:19;16.58;;;12.07;;
40256;SDS011;25977;45.462;9.210;2023-10-31T01:43:45;20.52;;;14.25;;
40256;SDS011;25977;45.462;9.210;2023-10-31T01:46:10;20.85;;;12.82;;
40256;SDS011;25977;45.462;9.210;2023-10-31T01:48:36;18.08;;;12.30;;
40256;SDS011;25977;45.462;9.210;2023-10-31T01:51:03;25.75;;;13.32;;
40256;SDS011;25977;45.462;9.210;2023-10-31T01:53:29;22.83;;;12.32;;
40256;SDS011;25977;45.462;9.210;2023-10-31T01:56:00;26.15;;;14.25;;
40256;SDS011;25977;45.462;9.210;2023-10-31T01:58:28;20.73;;;13.23;;
40256;SDS011;25977;45.462;9.210;2023-10-31T02:00:59;24.20;;;13.98;;
40256;SDS011;25977;45.462;9.210;2023-10-31T02:03:26;20.80;;;12.68;;
40256;SDS011;25977;45.462;9.210;2023-10-31T02:05:52;17.85;;;13.00;;
40256;SDS011;25977;45.462;9.210;2023-10-31T02:08:19;21.67;;;12.65;;
40256;SDS011;25977;45.462;9.210;2023-10-31T02:10:45;22.85;;;14.20;;
40256;SDS011;25977;45.462;9.210;2023-10-31T02:13:14;22.65;;;13.30;;
40256;SDS011;25977;45.462;9.210;2023-10-31T02:15:41;18.33;;;12.32;;
40256;SDS011;25977;45.462;9.210;2023-10-31T02:18:07;22.02;;;12.13;;
40256;SDS011;25977;45.462;9.210;2023-10-31T02:20:33;22.38;;;12.00;;
40256;SDS011;25977;45.462;9.210;2023-10-31T02:22:59;20.08;;;12.43;;
40256;SDS011;25977;45.462;9.210;2023-10-31T02:25:25;17.70;;;12.63;;
40256;SDS011;25977;45.462;9.210;2023-10-31T02:27:50;24.17;;;12.65;;
40256;SDS011;25977;45.462;9.210;2023-10-31T02:30:16;19.67;;;12.68;;
40256;SDS011;25977;45.462;9.210;2023-10-31T02:32:42;20.83;;;12.15;;
40256;SDS011;25977;45.462;9.210;2023-10-31T02:35:08;20.45;;;12.25;;
40256;SDS011;25977;45.462;9.210;2023-10-31T02:37:34;18.65;;;11.98;;
40256;SDS011;25977;45.462;9.210;2023-10-31T02:40:00;22.83;;;13.63;;
40256;SDS011;25977;45.462;9.210;2023-10-31T02:42:26;20.67;;;12.52;;
40256;SDS011;25977;45.462;9.210;2023-10-31T02:44:52;17.55;;;11.73;;
40256;SDS011;25977;45.462;9.210;2023-10-31T02:47:18;19.67;;;11.95;;
40256;SDS011;25977;45.462;9.210;2023-10-31T02:49:44;18.10;;;11.15;;
40256;SDS011;25977;45.462;9.210;2023-10-31T02:52:10;16.65;;;10.85;;
40256;SDS011;25977;45.462;9.210;2023-10-31T02:54:35;23.35;;;11.23;;
40256;SDS011;25977;45.462;9.210;2023-10-31T02:57:01;16.10;;;11.82;;
40256;SDS011;25977;45.462;9.210;2023-10-31T02:59:27;16.63;;;10.65;;
40256;SDS011;25977;45.462;9.210;2023-10-31T03:01:53;17.42;;;10.73;;
40256;SDS011;25977;45.462;9.210;2023-10-31T03:04:21;19.38;;;11.00;;
40256;SDS011;25977;45.462;9.210;2023-10-31T03:06:46;18.02;;;10.27;;
40256;SDS011;25977;45.462;9.210;2023-10-31T03:09:12;13.07;;;8.75;;
40256;SDS011;25977;45.462;9.210;2023-10-31T03:11:38;13.55;;;9.52;;
40256;SDS011;25977;45.462;9.210;2023-10-31T03:14:04;18.95;;;9.00;;
40256;SDS011;25977;45.462;9.210;2023-10-31T03:16:29;12.50;;;8.20;;
40256;SDS011;25977;45.462;9.210;2023-10-31T03:18:55;9.10;;;6.53;;
40256;SDS011;25977;45.462;9.210;2023-10-31T03:21:21;12.52;;;7.38;;
40256;SDS011;25977;45.462;9.210;2023-10-31T03:23:48;13.23;;;8.90;;
40256;SDS011;25977;45.462;9.210;2023-10-31T03:26:15;10.77;;;6.43;;
40256;SDS011;25977;45.462;9.210;2023-10-31T03:28:44;14.73;;;9.35;;
40256;SDS011;25977;45.462;9.210;2023-10-31T03:31:10;13.88;;;9.40;;
40256;SDS011;25977;45.462;9.210;2023-10-31T03:33:37;11.90;;;9.15;;
40256;SDS011;25977;45.462;9.210;2023-10-31T03:36:03;15.45;;;9.35;;
40256;SDS011;25977;45.462;9.210;2023-10-31T03:38:29;15.90;;;10.05;;
40256;SDS011;25977;45.462;9.210;2023-10-31T03:40:54;7.20;;;4.70;;
40256;SDS011;25977;45.462;9.210;2023-10-31T03:43:20;9.02;;;4.63;;
40256;SDS011;25977;45.462;9.210;2023-10-31T03:45:46;5.72;;;4.85;;
40256;SDS011;25977;45.462;9.210;2023-10-31T03:48:15;7.88;;;6.78;;
40256;SDS011;25977;45.462;9.210;2023-10-31T03:50:41;7.28;;;6.20;;
40256;SDS011;25977;45.462;9.210;2023-10-31T03:53:07;8.40;;;4.50;;
40256;SDS011;25977;45.462;9.210;2023-10-31T03:55:33;5.30;;;2.67;;
40256;SDS011;25977;45.462;9.210;2023-10-31T03:57:59;3.80;;;2.60;;
40256;SDS011;25977;45.462;9.210;2023-10-31T04:00:24;4.05;;;2.35;;
40256;SDS011;25977;45.462;9.210;2023-10-31T04:02:50;5.50;;;2.90;;
40256;SDS011;25977;45.462;9.210;2023-10-31T04:05:16;3.15;;;2.45;;
40256;SDS011;25977;45.462;9.210;2023-10-31T04:07:41;3.30;;;3.00;;
40256;SDS011;25977;45.462;9.210;2023-10-31T04:10:08;3.83;;;3.53;;
40256;SDS011;25977;45.462;9.210;2023-10-31T04:12:34;3.10;;;2.17;;
40256;SDS011;25977;45.462;9.210;2023-10-31T04:15:00;2.55;;;1.13;;
40256;SDS011;25977;45.462;9.210;2023-10-31T04:17:26;1.42;;;0.95;;
40256;SDS011;25977;45.462;9.210;2023-10-31T04:19:52;0.80;;;0.70;;
40256;SDS011;25977;45.462;9.210;2023-10-31T04:22:19;0.75;;;0.75;;
40256;SDS011;25977;45.462;9.210;2023-10-31T04:24:44;0.65;;;0.65;;
40256;SDS011;25977;45.462;9.210;2023-10-31T04:27:10;2.83;;;0.50;;
40256;SDS011;25977;45.462;9.210;2023-10-31T04:29:36;0.22;;;0.22;;
40256;SDS011;25977;45.462;9.210;2023-10-31T04:32:01;0.32;;;0.32;;
40256;SDS011;25977;45.462;9.210;2023-10-31T04:34:27;0.60;;;0.43;;
40256;SDS011;25977;45.462;9.210;2023-10-31T04:36:53;0.20;;;0.20;;
40256;SDS011;25977;45.462;9.210;2023-10-31T04:39:18;0.30;;;0.30;;
40256;SDS011;25977;45.462;9.210;2023-10-31T04:41:44;0.35;;;0.35;;
40256;SDS011;25977;45.462;9.210;2023-10-31T04:44:10;0.10;;;0.10;;
40256;SDS011;25977;45.462;9.210;2023-10-31T04:46:36;0.10;;;0.10;;
40256;SDS011;25977;45.462;9.210;2023-10-31T04:49:02;0.10;;;0.10;;
40256;SDS011;25977;45.462;9.210;2023-10-31T04:51:32;0.17;;;0.17;;
40256;SDS011;25977;45.462;9.210;2023-10-31T04:53:58;0.10;;;0.10;;
40256;SDS011;25977;45.462;9.210;2023-10-31T04:56:27;0.20;;;0.20;;
40256;SDS011;25977;45.462;9.210;2023-10-31T04:58:53;1.15;;;0.50;;
40256;SDS011;25977;45.462;9.210;2023-10-31T05:01:19;1.45;;;0.38;;
40256;SDS011;25977;45.462;9.210;2023-10-31T05:03:45;0.30;;;0.10;;
40256;SDS011;25977;45.462;9.210;2023-10-31T05:06:10;1.80;;;0.20;;
40256;SDS011;25977;45.462;9.210;2023-10-31T05:08:36;0.10;;;0.10;;
40256;SDS011;25977;45.462;9.210;2023-10-31T05:11:02;0.03;;;0.03;;
40256;SDS011;25977;45.462;9.210;2023-10-31T05:13:28;0.10;;;0.10;;
40256;SDS011;25977;45.462;9.210;2023-10-31T05:15:53;0.00;;;0.00;;
40256;SDS011;25977;45.462;9.210;2023-10-31T05:18:19;0.00;;;0.00;;
40256;SDS011;25977;45.462;9.210;2023-10-31T05:20:45;0.22;;;0.10;;
40256;SDS011;25977;45.462;9.210;2023-10-31T05:23:11;0.10;;;0.10;;
40256;SDS011;25977;45.462;9.210;2023-10-31T05:25:37;0.65;;;0.10;;
40256;SDS011;25977;45.462;9.210;2023-10-31T05:28:03;0.28;;;0.20;;
40256;SDS011;25977;45.462;9.210;2023-10-31T05:30:29;0.50;;;0.10;;
40256;SDS011;25977;45.462;9.210;2023-10-31T05:32:55;0.85;;;0.20;;
40256;SDS011;25977;45.462;9.210;2023-10-31T05:35:20;0.10;;;0.10;;
40256;SDS011;25977;45.462;9.210;2023-10-31T05:37:47;0.10;;;0.10;;
40256;SDS011;25977;45.462;9.210;2023-10-31T05:40:12;0.10;;;0.10;;
40256;SDS011;25977;45.462;9.210;2023-10-31T05:42:39;0.08;;;0.00;;
40256;SDS011;25977;45.462;9.210;2023-10-31T05:45:05;0.17;;;0.10;;
40256;SDS011;25977;45.462;9.210;2023-10-31T05:47:31;1.08;;;0.20;;
40256;SDS011;25977;45.462;9.210;2023-10-31T05:49:58;0.75;;;0.10;;
40256;SDS011;25977;45.462;9.210;2023-10-31T05:52:27;3.03;;;0.28;;
40256;SDS011;25977;45.462;9.210;2023-10-31T05:54:58;0.40;;;0.40;;
40256;SDS011;25977;45.462;9.210;2023-10-31T05:57:24;0.30;;;0.10;;
40256;SDS011;25977;45.462;9.210;2023-10-31T05:59:49;0.10;;;0.10;;
40256;SDS011;25977;45.462;9.210;2023-10-31T06:02:15;0.10;;;0.10;;
40256;SDS011;25977;45.462;9.210;2023-10-31T06:04:41;0.10;;;0.10;;
40256;SDS011;25977;45.462;9.210;2023-10-31T06:07:06;0.10;;;0.10;;
40256;SDS011;25977;45.462;9.210;2023-10-31T06:09:38;0.13;;;0.10;;
40256;SDS011;25977;45.462;9.210;2023-10-31T06:12:04;0.10;;;0.10;;
40256;SDS011;25977;45.462;9.210;2023-10-31T06:14:30;0.10;;;0.10;;
40256;SDS011;25977;45.462;9.210;2023-10-31T06:16:57;0.20;;;0.00;;
40256;SDS011;25977;45.462;9.210;2023-10-31T06:19:24;0.10;;;0.10;;
40256;SDS011;25977;45.462;9.210;2023-10-31T06:21:50;0.10;;;0.10;;
40256;SDS011;25977;45.462;9.210;2023-10-31T06:24:16;0.10;;;0.10;;
40256;SDS011;25977;45.462;9.210;2023-10-31T06:26:42;0.88;;;0.03;;
40256;SDS011;25977;45.462;9.210;2023-10-31T06:29:07;0.10;;;0.10;;
40256;SDS011;25977;45.462;9.210;2023-10-31T06:31:33;0.25;;;0.08;;
40256;SDS011;25977;45.462;9.210;2023-10-31T06:33:58;0.70;;;0.10;;
40256;SDS011;25977;45.462;9.210;2023-10-31T06:36:24;0.40;;;0.13;;
40256;SDS011;25977;45.462;9.210;2023-10-31T06:38:50;0.15;;;0.15;;
40256;SDS011;25977;45.462;9.210;2023-10-31T06:41:15;0.35;;;0.22;;
40256;SDS011;25977;45.462;9.210;2023-10-31T06:43:41;0.95;;;0.60;;
40256;SDS011;25977;45.462;9.210;2023-10-31T06:46:07;0.35;;;0.10;;
40256;SDS011;25977;45.462;9.210;2023-10-31T06:48:33;0.10;;;0.10;;
40256;SDS011;25977;45.462;9.210;2023-10-31T06:50:59;0.13;;;0.10;;
40256;SDS011;25977;45.462;9.210;2023-10-31T06:53:24;0.10;;;0.10;;
40256;SDS011;25977;45.462;9.210;2023-10-31T06:55:50;0.10;;;0.10;;
40256;SDS011;25977;45.462;9.210;2023-10-31T06:58:16;0.17;;;0.10;;
40256;SDS011;25977;45.462;9.210;2023-10-31T07:00:42;0.10;;;0.10;;
40256;SDS011;25977;45.462;9.210;2023-10-31T07:03:08;0.30;;;0.10;;
40256;SDS011;25977;45.462;9.210;2023-10-31T07:05:36;0.10;;;0.10;;
40256;SDS011;25977;45.462;9.210;2023-10-31T07:08:02;0.20;;;0.20;;
40256;SDS011;25977;45.462;9.210;2023-10-31T07:10:28;0.10;;;0.10;;
40256;SDS011;25977;45.462;9.210;2023-10-31T07:12:54;0.15;;;0.15;;
40256;SDS011;25977;45.462;9.210;2023-10-31T07:15:20;0.47;;;0.17;;
40256;SDS011;25977;45.462;9.210;2023-10-31T07:17:46;0.13;;;0.13;;
40256;SDS011;25977;45.462;9.210;2023-10-31T07:20:12;0.30;;;0.20;;
40256;SDS011;25977;45.462;9.210;2023-10-31T07:22:38;0.10;;;0.10;;
40256;SDS011;25977;45.462;9.210;2023-10-31T07:25:05;1.08;;;0.28;;
40256;SDS011;25977;45.462;9.210;2023-10-31T07:27:31;0.43;;;0.30;;
40256;SDS011;25977;45.462;9.210;2023-10-31T07:29:57;0.10;;;0.10;;
40256;SDS011;25977;45.462;9.210;2023-10-31T07:32:23;0.00;;;0.00;;
40256;SDS011;25977;45.462;9.210;2023-10-31T07:34:50;2.20;;;0.22;;
40256;SDS011;25977;45.462;9.210;2023-10-31T07:37:15;0.30;;;0.22;;
40256;SDS011;25977;45.462;9.210;2023-10-31T07:39:41;1.92;;;0.32;;
40256;SDS011;25977;45.462;9.210;2023-10-31T07:42:07;0.32;;;0.25;;
40256;SDS011;25977;45.462;9.210;2023-10-31T07:44:34;0.20;;;0.20;;
40256;SDS011;25977;45.462;9.210;2023-10-31T07:47:00;0.13;;;0.13;;
40256;SDS011;25977;45.462;9.210;2023-10-31T07:49:25;1.38;;;0.60;;
40256;SDS011;25977;45.462;9.210;2023-10-31T07:51:51;0.13;;;0.13;;
40256;SDS011;25977;45.462;9.210;2023-10-31T07:54:17;0.43;;;0.13;;
40256;SDS011;25977;45.462;9.210;2023-10-31T07:56:43;1.17;;;0.60;;
40256;SDS011;25977;45.462;9.210;2023-10-31T07:59:10;0.77;;;0.20;;
40256;SDS011;25977;45.462;9.210;2023-10-31T08:01:36;2.05;;;0.30;;
40256;SDS011;25977;45.462;9.210;2023-10-31T08:04:02;0.40;;;0.30;;
40256;SDS011;25977;45.462;9.210;2023-10-31T08:06:28;1.85;;;0.57;;
40256;SDS011;25977;45.462;9.210;2023-10-31T08:08:54;0.45;;;0.20;;
40256;SDS011;25977;45.462;9.210;2023-10-31T08:11:19;0.10;;;0.10;;
40256;SDS011;25977;45.462;9.210;2023-10-31T08:13:45;0.10;;;0.10;;
40256;SDS011;25977;45.462;9.210;2023-10-31T08:16:16;3.10;;;0.63;;
40256;SDS011;25977;45.462;9.210;2023-10-31T08:18:45;2.00;;;0.30;;
40256;SDS011;25977;45.462;9.210;2023-10-31T08:21:11;0.20;;;0.17;;
40256;SDS011;25977;45.462;9.210;2023-10-31T08:23:37;1.30;;;0.20;;
40256;SDS011;25977;45.462;9.210;2023-10-31T08:26:03;0.35;;;0.15;;
40256;SDS011;25977;45.462;9.210;2023-10-31T08:28:29;0.40;;;0.40;;
40256;SDS011;25977;45.462;9.210;2023-10-31T08:30:56;0.30;;;0.20;;
40256;SDS011;25977;45.462;9.210;2023-10-31T08:33:22;0.47;;;0.47;;
40256;SDS011;25977;45.462;9.210;2023-10-31T08:35:48;0.47;;;0.22;;
40256;SDS011;25977;45.462;9.210;2023-10-31T08:38:15;0.65;;;0.20;;
40256;SDS011;25977;45.462;9.210;2023-10-31T08:40:41;5.95;;;0.65;;
40256;SDS011;25977;45.462;9.210;2023-10-31T08:43:07;0.60;;;0.43;;
40256;SDS011;25977;45.462;9.210;2023-10-31T08:45:33;1.00;;;0.38;;
40256;SDS011;25977;45.462;9.210;2023-10-31T08:47:59;1.25;;;0.30;;
40256;SDS011;25977;45.462;9.210;2023-10-31T08:50:25;0.57;;;0.47;;
40256;SDS011;25977;45.462;9.210;2023-10-31T08:52:51;0.40;;;0.40;;
40256;SDS011;25977;45.462;9.210;2023-10-31T08:55:17;1.65;;;0.90;;
40256;SDS011;25977;45.462;9.210;2023-10-31T08:57:43;1.00;;;0.60;;
40256;SDS011;25977;45.462;9.210;2023-10-31T09:00:09;0.85;;;0.40;;
40256;SDS011;25977;45.462;9.210;2023-10-31T09:02:34;0.40;;;0.40;;
40256;SDS011;25977;45.462;9.210;2023-10-31T09:05:00;0.30;;;0.30;;
40256;SDS011;25977;45.462;9.210;2023-10-31T09:07:26;0.55;;;0.55;;
40256;SDS011;25977;45.462;9.210;2023-10-31T09:09:52;4.93;;;0.90;;
40256;SDS011;25977;45.462;9.210;2023-10-31T09:12:17;0.43;;;0.43;;
40256;SDS011;25977;45.462;9.210;2023-10-31T09:14:43;2.92;;;0.90;;
40256;SDS011;25977;45.462;9.210;2023-10-31T09:17:09;0.85;;;0.50;;
40256;SDS011;25977;45.462;9.210;2023-10-31T09:19:35;0.73;;;0.45;;
40256;SDS011;25977;45.462;9.210;2023-10-31T09:22:00;0.52;;;0.30;;
40256;SDS011;25977;45.462;9.210;2023-10-31T09:24:26;7.28;;;1.33;;
40256;SDS011;25977;45.462;9.210;2023-10-31T09:26:51;1.20;;;0.50;;
40256;SDS011;25977;45.462;9.210;2023-10-31T09:29:17;0.60;;;0.60;;
40256;SDS011;25977;45.462;9.210;2023-10-31T09:31:43;0.93;;;0.50;;
40256;SDS011;25977;45.462;9.210;2023-10-31T09:34:08;2.50;;;0.80;;
40256;SDS011;25977;45.462;9.210;2023-10-31T09:36:34;5.82;;;0.82;;
40256;SDS011;25977;45.462;9.210;2023-10-31T09:39:00;4.28;;;0.50;;
40256;SDS011;25977;45.462;9.210;2023-10-31T09:41:26;0.70;;;0.70;;
40256;SDS011;25977;45.462;9.210;2023-10-31T09:43:52;0.50;;;0.50;;
40256;SDS011;25977;45.462;9.210;2023-10-31T09:46:18;1.13;;;0.73;;
40256;SDS011;25977;45.462;9.210;2023-10-31T09:48:45;0.75;;;0.40;;
40256;SDS011;25977;45.462;9.210;2023-10-31T09:51:11;1.33;;;0.35;;
40256;SDS011;25977;45.462;9.210;2023-10-31T09:53:38;0.50;;;0.45;;
40256;SDS011;25977;45.462;9.210;2023-10-31T09:56:10;5.25;;;0.30;;
40256;SDS011;25977;45.462;9.210;2023-10-31T09:58:36;0.52;;;0.40;;
40256;SDS011;25977;45.462;9.210;2023-10-31T10:01:04;3.22;;;1.02;;
40256;SDS011;25977;45.462;9.210;2023-10-31T10:03:30;0.55;;;0.45;;
40256;SDS011;25977;45.462;9.210;2023-10-31T10:05:56;3.95;;;0.77;;
40256;SDS011;25977;45.462;9.210;2023-10-31T10:08:23;0.52;;;0.52;;
40256;SDS011;25977;45.462;9.210;2023-10-31T10:10:52;1.10;;;0.77;;
40256;SDS011;25977;45.462;9.210;2023-10-31T10:13:18;1.55;;;0.40;;
40256;SDS011;25977;45.462;9.210;2023-10-31T10:15:45;0.60;;;0.60;;
40256;SDS011;25977;45.462;9.210;2023-10-31T10:18:30;0.70;;;0.30;;
40256;SDS011;25977;45.462;9.210;2023-10-31T10:21:00;2.05;;;0.60;;
40256;SDS011;25977;45.462;9.210;2023-10-31T10:23:27;0.60;;;0.47;;
40256;SDS011;25977;45.462;9.210;2023-10-31T10:25:54;0.40;;;0.40;;
40256;SDS011;25977;45.462;9.210;2023-10-31T10:28:21;0.30;;;0.30;;
40256;SDS011;25977;45.462;9.210;2023-10-31T10:30:50;1.50;;;0.40;;
40256;SDS011;25977;45.462;9.210;2023-10-31T10:33:17;1.05;;;0.30;;
40256;SDS011;25977;45.462;9.210;2023-10-31T10:35:43;0.55;;;0.55;;
40256;SDS011;25977;45.462;9.210;2023-10-31T10:38:14;1.23;;;0.35;;
40256;SDS011;25977;45.462;9.210;2023-10-31T10:40:42;0.30;;;0.30;;
40256;SDS011;25977;45.462;9.210;2023-10-31T10:43:13;0.35;;;0.35;;
40256;SDS011;25977;45.462;9.210;2023-10-31T10:45:56;0.60;;;0.60;;
40256;SDS011;25977;45.462;9.210;2023-10-31T10:48:23;1.50;;;0.70;;
40256;SDS011;25977;45.462;9.210;2023-10-31T10:50:52;0.45;;;0.22;;
40256;SDS011;25977;45.462;9.210;2023-10-31T10:53:24;0.32;;;0.32;;
40256;SDS011;25977;45.462;9.210;2023-10-31T10:55:59;0.50;;;0.50;;
40256;SDS011;25977;45.462;9.210;2023-10-31T11:01:19;0.43;;;0.40;;
40256;SDS011;25977;45.462;9.210;2023-10-31T11:03:45;1.95;;;0.40;;
40256;SDS011;25977;45.462;9.210;2023-10-31T11:06:12;0.95;;;0.47;;
40256;SDS011;25977;45.462;9.210;2023-10-31T11:08:39;0.82;;;0.52;;
40256;SDS011;25977;45.462;9.210;2023-10-31T11:11:05;0.30;;;0.20;;
40256;SDS011;25977;45.462;9.210;2023-10-31T11:13:31;0.32;;;0.22;;
40256;SDS011;25977;45.462;9.210;2023-10-31T11:15:59;0.30;;;0.30;;
40256;SDS011;25977;45.462;9.210;2023-10-31T11:18:34;5.43;;;4.85;;
40256;SDS011;25977;45.462;9.210;2023-10-31T11:21:00;7.00;;;4.85;;
40256;SDS011;25977;45.462;9.210;2023-10-31T11:23:27;8.18;;;6.30;;
40256;SDS011;25977;45.462;9.210;2023-10-31T11:25:53;2.55;;;2.10;;
40256;SDS011;25977;45.462;9.210;2023-10-31T11:28:19;6.68;;;3.50;;
40256;SDS011;25977;45.462;9.210;2023-10-31T11:30:46;5.10;;;3.85;;
40256;SDS011;25977;45.462;9.210;2023-10-31T11:33:15;4.57;;;3.97;;
40256;SDS011;25977;45.462;9.210;2023-10-31T11:35:43;3.97;;;3.28;;
40256;SDS011;25977;45.462;9.210;2023-10-31T11:38:14;2.30;;;2.10;;
40256;SDS011;25977;45.462;9.210;2023-10-31T11:43:14;1.27;;;1.13;;
40256;SDS011;25977;45.462;9.210;2023-10-31T11:45:40;2.17;;;0.95;;
40256;SDS011;25977;45.462;9.210;2023-10-31T11:48:09;1.20;;;0.77;;
40256;SDS011;25977;45.462;9.210;2023-10-31T11:50:36;1.85;;;0.38;;
40256;SDS011;25977;45.462;9.210;2023-10-31T11:55:33;1.35;;;0.85;;
40256;SDS011;25977;45.462;9.210;2023-10-31T12:00:39;1.13;;;0.80;;
40256;SDS011;25977;45.462;9.210;2023-10-31T12:03:05;0.40;;;0.40;;
40256;SDS011;25977;45.462;9.210;2023-10-31T12:05:31;3.30;;;0.90;;
40256;SDS011;25977;45.462;9.210;2023-10-31T12:07:57;0.57;;;0.32;;
40256;SDS011;25977;45.462;9.210;2023-10-31T12:10:23;0.50;;;0.50;;
40256;SDS011;25977;45.462;9.210;2023-10-31T12:12:52;1.38;;;1.13;;
40256;SDS011;25977;45.462;9.210;2023-10-31T12:15:18;0.50;;;0.50;;
40256;SDS011;25977;45.462;9.210;2023-10-31T12:17:44;0.57;;;0.45;;
40256;SDS011;25977;45.462;9.210;2023-10-31T12:20:11;4.20;;;0.90;;
40256;SDS011;25977;45.462;9.210;2023-10-31T12:22:36;3.13;;;0.90;;
40256;SDS011;25977;45.462;9.210;2023-10-31T12:25:03;0.80;;;0.80;;
40256;SDS011;25977;45.462;9.210;2023-10-31T12:27:45;0.65;;;0.50;;
40256;SDS011;25977;45.462;9.210;2023-10-31T12:30:13;2.25;;;0.60;;
40256;SDS011;25977;45.462;9.210;2023-10-31T12:32:40;3.53;;;1.25;;
40256;SDS011;25977;45.462;9.210;2023-10-31T12:35:07;0.98;;;0.65;;
40256;SDS011;25977;45.462;9.210;2023-10-31T12:37:43;2.47;;;0.85;;
40256;SDS011;25977;45.462;9.210;2023-10-31T12:40:20;1.30;;;0.90;;
40256;SDS011;25977;45.462;9.210;2023-10-31T12:42:47;1.00;;;1.00;;
40256;SDS011;25977;45.462;9.210;2023-10-31T12:45:14;0.70;;;0.70;;
40256;SDS011;25977;45.462;9.210;2023-10-31T12:47:42;0.68;;;0.68;;
40256;SDS011;25977;45.462;9.210;2023-10-31T12:50:12;1.52;;;0.85;;
40256;SDS011;25977;45.462;9.210;2023-10-31T12:52:48;0.90;;;0.70;;
40256;SDS011;25977;45.462;9.210;2023-10-31T12:55:16;0.70;;;0.40;;
40256;SDS011;25977;45.462;9.210;2023-10-31T12:57:53;0.70;;;0.50;;
40256;SDS011;25977;45.462;9.210;2023-10-31T13:00:20;3.05;;;0.50;;
40256;SDS011;25977;45.462;9.210;2023-10-31T13:02:50;1.55;;;1.20;;
40256;SDS011;25977;45.462;9.210;2023-10-31T13:05:17;1.88;;;0.50;;
40256;SDS011;25977;45.462;9.210;2023-10-31T13:07:49;2.00;;;0.65;;
40256;SDS011;25977;45.462;9.210;2023-10-31T13:10:16;0.57;;;0.57;;
40256;SDS011;25977;45.462;9.210;2023-10-31T13:12:44;5.38;;;0.45;;
40256;SDS011;25977;45.462;9.210;2023-10-31T13:15:12;0.63;;;0.47;;
40256;SDS011;25977;45.462;9.210;2023-10-31T13:17:41;0.50;;;0.50;;
40256;SDS011;25977;45.462;9.210;2023-10-31T13:20:11;2.85;;;0.55;;
40256;SDS011;25977;45.462;9.210;2023-10-31T13:22:38;1.58;;;0.45;;
40256;SDS011;25977;45.462;9.210;2023-10-31T13:25:05;4.68;;;1.60;;
40256;SDS011;25977;45.462;9.210;2023-10-31T13:27:42;2.17;;;0.75;;
40256;SDS011;25977;45.462;9.210;2023-10-31T13:30:12;0.30;;;0.30;;
40256;SDS011;25977;45.462;9.210;2023-10-31T13:32:39;1.73;;;0.50;;
40256;SDS011;25977;45.462;9.210;2023-10-31T13:35:05;0.73;;;0.73;;
40256;SDS011;25977;45.462;9.210;2023-10-31T13:37:31;1.75;;;0.63;;
40256;SDS011;25977;45.462;9.210;2023-10-31T13:39:57;0.85;;;0.50;;
40256;SDS011;25977;45.462;9.210;2023-10-31T13:42:22;0.40;;;0.40;;
40256;SDS011;25977;45.462;9.210;2023-10-31T13:44:48;1.58;;;0.40;;
40256;SDS011;25977;45.462;9.210;2023-10-31T13:47:14;0.90;;;0.60;;
40256;SDS011;25977;45.462;9.210;2023-10-31T13:49:40;0.60;;;0.60;;
40256;SDS011;25977;45.462;9.210;2023-10-31T13:52:05;1.63;;;0.50;;
40256;SDS011;25977;45.462;9.210;2023-10-31T13:54:32;1.00;;;0.40;;
40256;SDS011;25977;45.462;9.210;2023-10-31T13:56:58;1.48;;;0.47;;
40256;SDS011;25977;45.462;9.210;2023-10-31T13:59:24;0.55;;;0.55;;
40256;SDS011;25977;45.462;9.210;2023-10-31T14:01:50;1.30;;;0.57;;
40256;SDS011;25977;45.462;9.210;2023-10-31T14:04:17;0.47;;;0.47;;
40256;SDS011;25977;45.462;9.210;2023-10-31T14:06:43;1.33;;;0.90;;
40256;SDS011;25977;45.462;9.210;2023-10-31T14:09:09;8.70;;;0.68;;
40256;SDS011;25977;45.462;9.210;2023-10-31T14:11:37;1.45;;;0.57;;
40256;SDS011;25977;45.462;9.210;2023-10-31T14:14:03;0.38;;;0.30;;
40256;SDS011;25977;45.462;9.210;2023-10-31T14:16:41;0.90;;;0.40;;
40256;SDS011;25977;45.462;9.210;2023-10-31T14:19:10;0.77;;;0.63;;
40256;SDS011;25977;45.462;9.210;2023-10-31T14:21:38;0.70;;;0.70;;
40256;SDS011;25977;45.462;9.210;2023-10-31T14:24:04;1.63;;;0.30;;
40256;SDS011;25977;45.462;9.210;2023-10-31T14:26:30;1.00;;;0.40;;
40256;SDS011;25977;45.462;9.210;2023-10-31T14:28:58;7.20;;;0.47;;
40256;SDS011;25977;45.462;9.210;2023-10-31T14:31:24;0.38;;;0.25;;
40256;SDS011;25977;45.462;9.210;2023-10-31T14:33:50;2.83;;;0.75;;
40256;SDS011;25977;45.462;9.210;2023-10-31T14:36:15;0.70;;;0.70;;
40256;SDS011;25977;45.462;9.210;2023-10-31T14:38:42;0.38;;;0.30;;
40256;SDS011;25977;45.462;9.210;2023-10-31T14:41:08;0.28;;;0.28;;
40256;SDS011;25977;45.462;9.210;2023-10-31T14:43:34;0.40;;;0.40;;
40256;SDS011;25977;45.462;9.210;2023-10-31T14:45:59;0.50;;;0.50;;
40256;SDS011;25977;45.462;9.210;2023-10-31T14:48:26;0.40;;;0.40;;
40256;SDS011;25977;45.462;9.210;2023-10-31T14:50:51;0.93;;;0.38;;